Time;durP1;ratioP1;P1;durP2;ratioP2;P2;SDS_P1;SDS_P2;PMS_P1;PMS_P2;Temp;Humidity;BMP_temperature;BMP_pressure;BME280_temperature;BME280_humidity;BME280_pressure;Samples;Min_cycle;Max_cycle;Signal;HPM_P1;HPM_P2
2024/03/17 00:01:02;;;;;;;10.77;7.05;;;;;;;;;;5056150;28;20404;-79
2024/03/17 00:03:30;;;;;;;12.45;8.23;;;;;;;;;;5045692;28;20036;-79
2024/03/17 00:06:00;;;;;;;13.27;7.65;;;;;;;;;;5071497;28;20024;-82
2024/03/17 00:08:27;;;;;;;13.35;7.28;;;;;;;;;;5054171;28;20060;-82
2024/03/17 00:10:55;;;;;;;10.80;7.22;;;;;;;;;;5060416;28;20526;-81
2024/03/17 00:13:24;;;;;;;14.65;7.13;;;;;;;;;;5052637;28;20108;-81
2024/03/17 00:15:52;;;;;;;11.88;6.85;;;;;;;;;;5071246;28;20469;-82
2024/03/17 00:18:18;;;;;;;11.63;6.50;;;;;;;;;;5053650;28;20036;-84
2024/03/17 00:20:43;;;;;;;11.75;7.25;;;;;;;;;;5056190;28;20551;-82
2024/03/17 00:23:11;;;;;;;10.27;6.45;;;;;;;;;;5055711;28;20472;-82
2024/03/17 00:25:38;;;;;;;10.65;6.53;;;;;;;;;;5070775;28;20028;-82
2024/03/17 00:28:04;;;;;;;12.32;6.63;;;;;;;;;;5071984;28;20449;-81
2024/03/17 00:30:29;;;;;;;9.07;6.00;;;;;;;;;;5060295;28;20047;-82
2024/03/17 00:32:55;;;;;;;11.23;6.22;;;;;;;;;;5052861;28;20088;-82
2024/03/17 00:35:20;;;;;;;9.20;6.15;;;;;;;;;;5077942;28;20050;-82
2024/03/17 00:37:50;;;;;;;10.23;6.13;;;;;;;;;;5055180;28;20016;-82
2024/03/17 00:40:17;;;;;;;11.38;6.90;;;;;;;;;;5054568;28;20074;-82
2024/03/17 00:42:44;;;;;;;10.80;6.30;;;;;;;;;;5053869;28;20464;-82
2024/03/17 00:45:11;;;;;;;12.32;6.68;;;;;;;;;;5054632;28;20384;-82
2024/03/17 00:47:37;;;;;;;9.80;6.15;;;;;;;;;;5070745;28;20086;-82
2024/03/17 00:50:04;;;;;;;9.60;5.72;;;;;;;;;;5066608;28;20024;-82
2024/03/17 00:52:30;;;;;;;10.35;6.15;;;;;;;;;;5054917;28;20037;-82
2024/03/17 00:54:56;;;;;;;8.85;6.15;;;;;;;;;;5058292;28;20077;-84
2024/03/17 00:57:21;;;;;;;11.93;6.95;;;;;;;;;;5057437;28;20032;-84
2024/03/17 00:59:47;;;;;;;15.93;8.63;;;;;;;;;;5056771;28;20028;-85
2024/03/17 01:02:13;;;;;;;17.75;9.65;;;;;;;;;;5064932;28;20108;-85
2024/03/17 01:04:45;;;;;;;18.48;9.57;;;;;;;;;;5057561;28;20086;-84
2024/03/17 01:07:11;;;;;;;13.90;8.30;;;;;;;;;;5054528;28;20028;-84
2024/03/17 01:09:37;;;;;;;12.77;8.25;;;;;;;;;;5056795;28;20024;-84
2024/03/17 01:12:03;;;;;;;12.02;7.32;;;;;;;;;;5053408;28;20016;-84
2024/03/17 01:14:32;;;;;;;11.25;6.63;;;;;;;;;;5059320;28;20101;-85
2024/03/17 01:17:04;;;;;;;11.07;6.90;;;;;;;;;;5078128;28;20024;-83
2024/03/17 01:19:31;;;;;;;11.55;6.05;;;;;;;;;;5052863;28;20525;-83
2024/03/17 01:21:56;;;;;;;10.18;6.18;;;;;;;;;;5054978;28;20025;-83
2024/03/17 01:24:22;;;;;;;13.52;6.45;;;;;;;;;;5055566;28;20114;-83
2024/03/17 01:26:47;;;;;;;11.05;6.57;;;;;;;;;;5072962;28;20437;-83
2024/03/17 01:29:13;;;;;;;10.27;6.38;;;;;;;;;;5061278;28;20036;-83
2024/03/17 01:31:39;;;;;;;10.00;6.57;;;;;;;;;;5072447;28;20025;-83
2024/03/17 01:34:04;;;;;;;11.70;6.53;;;;;;;;;;5070479;28;20127;-84
2024/03/17 01:36:30;;;;;;;11.07;6.85;;;;;;;;;;5074302;28;20037;-83
2024/03/17 01:38:55;;;;;;;9.43;6.63;;;;;;;;;;5066785;28;20025;-81
2024/03/17 01:41:21;;;;;;;11.93;6.55;;;;;;;;;;5056714;28;20028;-81
2024/03/17 01:43:46;;;;;;;10.52;6.20;;;;;;;;;;5076280;28;20027;-81
2024/03/17 01:46:15;;;;;;;10.13;6.38;;;;;;;;;;5056640;28;20025;-83
2024/03/17 01:48:41;;;;;;;10.23;6.30;;;;;;;;;;5063788;28;20035;-84
2024/03/17 01:51:07;;;;;;;9.32;6.68;;;;;;;;;;5060274;28;20020;-84
2024/03/17 01:53:32;;;;;;;10.50;6.90;;;;;;;;;;5072423;28;20028;-81
2024/03/17 01:55:59;;;;;;;11.15;6.82;;;;;;;;;;5073347;28;20031;-81
2024/03/17 01:58:30;;;;;;;10.40;6.70;;;;;;;;;;5051904;28;20488;-83
2024/03/17 02:00:58;;;;;;;11.80;6.63;;;;;;;;;;5077705;28;20051;-86
2024/03/17 02:03:23;;;;;;;9.32;6.05;;;;;;;;;;5062577;23;20044;-81
2024/03/17 02:05:49;;;;;;;9.32;5.93;;;;;;;;;;5074160;28;20024;-91
2024/03/17 02:08:14;;;;;;;10.68;6.45;;;;;;;;;;5066394;28;20027;-90
2024/03/17 02:10:40;;;;;;;11.23;7.57;;;;;;;;;;5084925;28;20029;-90
2024/03/17 02:13:05;;;;;;;11.77;7.18;;;;;;;;;;5067792;28;20557;-89
2024/03/17 02:15:32;;;;;;;10.07;6.97;;;;;;;;;;5072141;28;20031;-91
2024/03/17 02:17:58;;;;;;;9.57;6.70;;;;;;;;;;5066723;28;20089;-91
2024/03/17 02:23:07;;;;;;;11.48;6.28;;;;;;;;;;5086353;28;20035;-90
2024/03/17 02:25:33;;;;;;;9.95;6.32;;;;;;;;;;5067498;28;20025;-91
2024/03/17 02:27:58;;;;;;;9.55;6.47;;;;;;;;;;5064779;28;20046;-91
2024/03/17 02:30:24;;;;;;;10.73;7.05;;;;;;;;;;5069786;28;20451;-90
2024/03/17 02:32:54;;;;;;;11.73;6.70;;;;;;;;;;5067198;28;20032;-90
2024/03/17 02:35:21;;;;;;;9.07;6.18;;;;;;;;;;5069654;28;20028;-91
2024/03/17 02:37:47;;;;;;;13.77;7.50;;;;;;;;;;5084779;28;20089;-91
2024/03/17 02:40:13;;;;;;;9.85;6.63;;;;;;;;;;5068677;28;20382;-90
2024/03/17 02:42:41;;;;;;;12.68;7.03;;;;;;;;;;5064654;28;20027;-90
2024/03/17 02:45:08;;;;;;;13.10;8.35;;;;;;;;;;5067808;28;20036;-90
2024/03/17 02:47:34;;;;;;;10.05;7.18;;;;;;;;;;5087116;28;20046;-89
2024/03/17 02:50:00;;;;;;;9.93;6.78;;;;;;;;;;5085558;28;20024;-90
2024/03/17 02:52:25;;;;;;;10.65;6.82;;;;;;;;;;5051547;28;20386;-91
2024/03/17 02:54:53;;;;;;;10.82;7.00;;;;;;;;;;5064319;28;20029;-91
2024/03/17 02:57:18;;;;;;;14.40;8.20;;;;;;;;;;5068532;28;20174;-91
2024/03/17 02:59:44;;;;;;;11.25;7.28;;;;;;;;;;5049569;28;20426;-90
2024/03/17 03:02:10;;;;;;;14.00;7.65;;;;;;;;;;5051514;28;20079;-91
2024/03/17 03:04:36;;;;;;;16.08;8.70;;;;;;;;;;5068762;28;20028;-90
2024/03/17 03:07:01;;;;;;;12.45;7.45;;;;;;;;;;5056877;28;20112;-91
2024/03/17 03:09:31;;;;;;;13.63;7.50;;;;;;;;;;5050947;28;20024;-90
2024/03/17 03:12:00;;;;;;;10.68;7.93;;;;;;;;;;5050708;28;20097;-90
2024/03/17 03:14:26;;;;;;;11.43;7.57;;;;;;;;;;5048565;28;20112;-90
2024/03/17 03:16:51;;;;;;;12.77;8.10;;;;;;;;;;5052632;28;20111;-79
2024/03/17 03:19:19;;;;;;;12.80;7.65;;;;;;;;;;5066858;28;20112;-79
2024/03/17 03:21:45;;;;;;;14.32;8.65;;;;;;;;;;5068803;28;20122;-80
2024/03/17 03:24:11;;;;;;;14.43;7.50;;;;;;;;;;5067629;28;20029;-80
2024/03/17 03:26:38;;;;;;;11.30;7.78;;;;;;;;;;5067245;28;20056;-80
2024/03/17 03:29:04;;;;;;;10.52;7.72;;;;;;;;;;5046802;28;20512;-79
2024/03/17 03:31:32;;;;;;;10.77;7.50;;;;;;;;;;5048773;28;20051;-80
2024/03/17 03:34:01;;;;;;;12.10;7.38;;;;;;;;;;5068722;28;20078;-80
2024/03/17 03:36:27;;;;;;;11.82;7.43;;;;;;;;;;5065282;28;20093;-80
2024/03/17 03:38:53;;;;;;;10.80;7.15;;;;;;;;;;5066102;28;20502;-80
2024/03/17 03:41:19;;;;;;;11.75;7.38;;;;;;;;;;5047664;28;20031;-80
2024/03/17 03:43:46;;;;;;;11.50;7.95;;;;;;;;;;5066028;28;20020;-80
2024/03/17 03:46:11;;;;;;;9.55;7.00;;;;;;;;;;5066999;28;20055;-79
2024/03/17 03:48:37;;;;;;;10.00;6.68;;;;;;;;;;5066104;28;20059;-79
2024/03/17 03:51:04;;;;;;;9.93;6.93;;;;;;;;;;5045438;28;20024;-79
2024/03/17 03:53:30;;;;;;;10.40;6.82;;;;;;;;;;5046039;28;20029;-79
2024/03/17 03:55:55;;;;;;;10.07;7.13;;;;;;;;;;5066315;28;20115;-79
2024/03/17 03:58:21;;;;;;;10.52;6.95;;;;;;;;;;5052776;28;20036;-79
2024/03/17 04:00:46;;;;;;;10.45;7.18;;;;;;;;;;5065913;28;20063;-80
2024/03/17 04:03:12;;;;;;;11.10;7.28;;;;;;;;;;5064471;28;20033;-79
2024/03/17 04:05:37;;;;;;;12.02;7.00;;;;;;;;;;5050116;28;20446;-81
2024/03/17 04:08:03;;;;;;;10.98;7.18;;;;;;;;;;5068672;28;20585;-79
2024/03/17 04:10:28;;;;;;;11.25;7.28;;;;;;;;;;5048392;28;20017;-80
2024/03/17 04:12:53;;;;;;;11.00;6.90;;;;;;;;;;5062984;28;20443;-80
2024/03/17 04:15:19;;;;;;;12.50;7.20;;;;;;;;;;5066823;28;20107;-81
2024/03/17 04:17:45;;;;;;;11.00;7.45;;;;;;;;;;5066589;28;20074;-80
2024/03/17 04:20:13;;;;;;;10.45;6.57;;;;;;;;;;5070524;28;20017;-79
2024/03/17 04:22:39;;;;;;;8.68;6.03;;;;;;;;;;5073976;28;20032;-79
2024/03/17 04:25:05;;;;;;;10.02;6.93;;;;;;;;;;5060943;28;20028;-80
2024/03/17 04:27:30;;;;;;;10.60;6.43;;;;;;;;;;5071983;28;20036;-80
2024/03/17 04:29:58;;;;;;;11.15;6.43;;;;;;;;;;5061727;28;20046;-79
2024/03/17 04:32:24;;;;;;;10.82;6.85;;;;;;;;;;5058608;28;20112;-79
2024/03/17 04:34:50;;;;;;;9.18;6.10;;;;;;;;;;5055539;28;20103;-80
2024/03/17 04:37:15;;;;;;;10.20;6.40;;;;;;;;;;5070568;28;20025;-80
2024/03/17 04:39:46;;;;;;;12.32;6.85;;;;;;;;;;5072798;28;20025;-79
2024/03/17 04:42:14;;;;;;;12.02;6.72;;;;;;;;;;5072412;28;20024;-80
2024/03/17 04:44:39;;;;;;;10.50;6.45;;;;;;;;;;5067770;28;20397;-80
2024/03/17 04:47:06;;;;;;;9.75;6.85;;;;;;;;;;5050450;28;20016;-79
2024/03/17 04:49:42;;;;;;;10.32;6.88;;;;;;;;;;5059381;28;20059;-79
2024/03/17 04:52:09;;;;;;;9.60;6.63;;;;;;;;;;5075327;28;20035;-80
2024/03/17 04:54:34;;;;;;;10.20;6.47;;;;;;;;;;5049575;28;20051;-80
2024/03/17 04:57:01;;;;;;;9.98;6.53;;;;;;;;;;5055380;28;20059;-80
2024/03/17 04:59:27;;;;;;;10.13;7.05;;;;;;;;;;5055288;28;20367;-80
2024/03/17 05:01:55;;;;;;;11.00;6.53;;;;;;;;;;5055346;28;20015;-80
2024/03/17 05:04:21;;;;;;;10.73;6.60;;;;;;;;;;5066175;28;20373;-80
2024/03/17 05:06:49;;;;;;;11.10;7.07;;;;;;;;;;5045698;28;20024;-80
2024/03/17 05:09:15;;;;;;;10.98;7.38;;;;;;;;;;5065203;28;20024;-80
2024/03/17 05:11:41;;;;;;;11.13;7.30;;;;;;;;;;5065859;28;20021;-80
2024/03/17 05:14:07;;;;;;;10.00;7.00;;;;;;;;;;5047586;28;20088;-79
2024/03/17 05:16:32;;;;;;;11.75;7.68;;;;;;;;;;5044144;28;20059;-79
2024/03/17 05:18:58;;;;;;;9.82;7.32;;;;;;;;;;5047256;28;20039;-80
2024/03/17 05:21:23;;;;;;;11.68;7.03;;;;;;;;;;5064909;28;20029;-80
2024/03/17 05:23:49;;;;;;;11.00;7.63;;;;;;;;;;5046106;28;20036;-80
2024/03/17 05:26:15;;;;;;;10.82;7.32;;;;;;;;;;5046746;28;20391;-80
2024/03/17 05:28:41;;;;;;;11.20;7.53;;;;;;;;;;5047382;28;20025;-80
2024/03/17 05:31:06;;;;;;;12.02;7.50;;;;;;;;;;5063565;28;20052;-80
2024/03/17 05:33:32;;;;;;;10.80;8.18;;;;;;;;;;5063589;28;20032;-80
2024/03/17 05:35:59;;;;;;;12.10;7.80;;;;;;;;;;5045706;28;20024;-80
2024/03/17 05:38:26;;;;;;;13.13;7.90;;;;;;;;;;5060950;28;20024;-80
2024/03/17 05:40:55;;;;;;;12.45;7.63;;;;;;;;;;5063562;28;20036;-80
2024/03/17 05:43:23;;;;;;;11.32;7.40;;;;;;;;;;5062411;28;20075;-80
2024/03/17 05:45:50;;;;;;;12.35;8.00;;;;;;;;;;5064919;28;20020;-90
2024/03/17 05:48:15;;;;;;;11.95;7.82;;;;;;;;;;5065298;28;20020;-90
2024/03/17 05:50:41;;;;;;;10.50;8.10;;;;;;;;;;5064852;28;20075;-90
2024/03/17 05:53:06;;;;;;;12.32;8.30;;;;;;;;;;5045134;28;20055;-90
2024/03/17 05:55:36;;;;;;;12.38;8.15;;;;;;;;;;5049022;28;20028;-90
2024/03/17 05:58:01;;;;;;;10.18;7.82;;;;;;;;;;5048306;28;20032;-91
2024/03/17 06:00:27;;;;;;;12.10;8.25;;;;;;;;;;5045552;28;20028;-91
2024/03/17 06:02:52;;;;;;;12.25;8.88;;;;;;;;;;5064571;28;20453;-88
2024/03/17 06:05:17;;;;;;;11.80;8.50;;;;;;;;;;5043563;28;20675;-88
2024/03/17 06:07:43;;;;;;;15.15;9.20;;;;;;;;;;5048580;28;20444;-88
2024/03/17 06:10:09;;;;;;;14.38;10.13;;;;;;;;;;5048690;28;20120;-89
2024/03/17 06:12:34;;;;;;;13.82;8.90;;;;;;;;;;5064994;28;20115;-88
2024/03/17 06:15:01;;;;;;;11.70;8.63;;;;;;;;;;5044881;28;20390;-89
2024/03/17 06:17:27;;;;;;;13.48;8.93;;;;;;;;;;5064541;28;20028;-89
2024/03/17 06:19:52;;;;;;;12.50;8.70;;;;;;;;;;5049009;28;20035;-89
2024/03/17 06:22:18;;;;;;;13.48;8.70;;;;;;;;;;5065965;28;20020;-89
2024/03/17 06:24:43;;;;;;;14.88;8.98;;;;;;;;;;5062192;28;20028;-87
2024/03/17 06:27:09;;;;;;;13.60;8.95;;;;;;;;;;5063883;28;20021;-89
2024/03/17 06:29:34;;;;;;;14.25;9.60;;;;;;;;;;5046182;28;20425;-89
2024/03/17 06:31:59;;;;;;;13.10;8.93;;;;;;;;;;5060594;28;20147;-89
2024/03/17 06:34:25;;;;;;;13.82;9.05;;;;;;;;;;5044830;28;20039;-88
2024/03/17 06:36:51;;;;;;;12.65;8.25;;;;;;;;;;5051996;28;20059;-88
2024/03/17 06:39:17;;;;;;;14.50;9.05;;;;;;;;;;5071820;28;20078;-89
2024/03/17 06:41:43;;;;;;;11.25;7.90;;;;;;;;;;5066319;28;20484;-88
2024/03/17 06:44:09;;;;;;;12.00;8.77;;;;;;;;;;5047107;28;20024;-89
2024/03/17 06:46:35;;;;;;;12.82;8.40;;;;;;;;;;5067041;28;20056;-89
2024/03/17 06:49:00;;;;;;;12.15;8.50;;;;;;;;;;5053814;28;20071;-89
2024/03/17 06:51:25;;;;;;;13.15;8.90;;;;;;;;;;5050492;28;20478;-88
2024/03/17 06:53:51;;;;;;;12.00;8.65;;;;;;;;;;5052930;28;20174;-88
2024/03/17 06:56:16;;;;;;;11.82;8.57;;;;;;;;;;5057241;28;20478;-87
2024/03/17 06:58:41;;;;;;;10.30;7.88;;;;;;;;;;5061995;28;20068;-88
2024/03/17 07:01:09;;;;;;;10.77;8.07;;;;;;;;;;5074296;28;20064;-87
2024/03/17 07:03:34;;;;;;;14.45;8.13;;;;;;;;;;5072019;28;20031;-87
2024/03/17 07:06:04;;;;;;;12.88;8.13;;;;;;;;;;5074959;28;20032;-87
2024/03/17 07:08:30;;;;;;;12.38;7.93;;;;;;;;;;5075561;28;20059;-87
2024/03/17 07:11:02;;;;;;;12.45;8.07;;;;;;;;;;5073783;28;20078;-87
2024/03/17 07:13:35;;;;;;;11.02;7.53;;;;;;;;;;5054670;28;20790;-87
2024/03/17 07:16:07;;;;;;;11.65;8.40;;;;;;;;;;5075016;28;20032;-87
2024/03/17 07:18:34;;;;;;;11.00;7.65;;;;;;;;;;5073231;28;20437;-87
2024/03/17 07:21:00;;;;;;;10.63;7.45;;;;;;;;;;5056820;28;20082;-87
2024/03/17 07:23:26;;;;;;;11.70;7.82;;;;;;;;;;5070746;28;20035;-87
2024/03/17 07:25:56;;;;;;;11.18;8.02;;;;;;;;;;5047067;28;20088;-87
2024/03/17 07:28:22;;;;;;;11.52;7.30;;;;;;;;;;5071143;28;20028;-87
2024/03/17 07:30:52;;;;;;;9.68;6.85;;;;;;;;;;5055000;28;20497;-88
2024/03/17 07:33:20;;;;;;;10.23;7.70;;;;;;;;;;5070612;28;20040;-87
2024/03/17 07:35:56;;;;;;;11.02;7.43;;;;;;;;;;5075056;28;20044;-87
2024/03/17 07:38:22;;;;;;;11.15;6.90;;;;;;;;;;5068179;28;20035;-87
2024/03/17 07:41:04;;;;;;;9.93;7.00;;;;;;;;;;5072733;28;20032;-88
2024/03/17 07:43:32;;;;;;;10.07;7.10;;;;;;;;;;5068123;28;20379;-87
2024/03/17 07:45:57;;;;;;;11.20;7.25;;;;;;;;;;5073311;28;20103;-87
2024/03/17 07:48:23;;;;;;;9.85;6.82;;;;;;;;;;5054485;28;20170;-88
2024/03/17 07:51:00;;;;;;;9.98;6.63;;;;;;;;;;5069452;28;20103;-87
2024/03/17 07:53:26;;;;;;;11.13;7.00;;;;;;;;;;5070999;28;20024;-87
2024/03/17 07:56:05;;;;;;;10.85;7.00;;;;;;;;;;5054479;28;20032;-88
2024/03/17 07:58:35;;;;;;;9.32;6.50;;;;;;;;;;5053719;28;20165;-87
2024/03/17 08:01:03;;;;;;;10.65;6.68;;;;;;;;;;5071002;28;20035;-88
2024/03/17 08:03:29;;;;;;;9.40;6.57;;;;;;;;;;5071700;28;20028;-87
2024/03/17 08:05:55;;;;;;;11.10;6.60;;;;;;;;;;5073173;28;20097;-79
2024/03/17 08:08:21;;;;;;;9.93;6.63;;;;;;;;;;5074848;28;20470;-79
2024/03/17 08:10:48;;;;;;;9.65;6.50;;;;;;;;;;5056800;28;20067;-79
2024/03/17 08:13:16;;;;;;;10.43;6.72;;;;;;;;;;5071112;28;20467;-79
2024/03/17 08:15:42;;;;;;;9.60;6.85;;;;;;;;;;5055445;28;20389;-79
2024/03/17 08:18:08;;;;;;;9.65;6.90;;;;;;;;;;5055255;28;20027;-79
2024/03/17 08:20:42;;;;;;;13.05;6.90;;;;;;;;;;5070822;28;20488;-79
2024/03/17 08:23:07;;;;;;;10.27;7.18;;;;;;;;;;5074018;28;20497;-79
2024/03/17 08:25:33;;;;;;;12.07;6.47;;;;;;;;;;5054318;28;20028;-79
2024/03/17 08:27:59;;;;;;;10.13;6.93;;;;;;;;;;5055487;28;20047;-79
2024/03/17 08:30:25;;;;;;;10.43;6.07;;;;;;;;;;5067425;28;20032;-79
2024/03/17 08:32:50;;;;;;;10.40;6.88;;;;;;;;;;5072746;28;20021;-79
2024/03/17 08:35:16;;;;;;;9.60;6.30;;;;;;;;;;5053388;28;20051;-79
2024/03/17 08:37:41;;;;;;;16.88;6.55;;;;;;;;;;5051341;28;20112;-79
2024/03/17 08:40:07;;;;;;;9.43;6.20;;;;;;;;;;5067025;28;20017;-79
2024/03/17 08:42:33;;;;;;;10.13;6.32;;;;;;;;;;5053548;28;20482;-79
2024/03/17 08:44:58;;;;;;;11.07;6.85;;;;;;;;;;5070840;28;20063;-79
2024/03/17 08:47:23;;;;;;;10.13;7.07;;;;;;;;;;5054588;28;20542;-79
2024/03/17 08:49:52;;;;;;;9.18;6.82;;;;;;;;;;5051516;28;20478;-79
2024/03/17 08:52:17;;;;;;;9.80;6.53;;;;;;;;;;5051227;28;20367;-79
2024/03/17 08:54:46;;;;;;;9.52;6.35;;;;;;;;;;5068736;28;20031;-79
2024/03/17 08:57:12;;;;;;;10.38;6.28;;;;;;;;;;5059692;28;20021;-79
2024/03/17 08:59:37;;;;;;;8.98;6.00;;;;;;;;;;5072695;28;20117;-79
2024/03/17 09:02:03;;;;;;;9.90;6.78;;;;;;;;;;5055315;28;20025;-79
2024/03/17 09:04:29;;;;;;;11.50;6.20;;;;;;;;;;5061789;28;20032;-79
2024/03/17 09:06:56;;;;;;;10.38;6.53;;;;;;;;;;5072492;28;20060;-79
2024/03/17 09:09:22;;;;;;;9.32;6.60;;;;;;;;;;5055009;28;20025;-79
2024/03/17 09:11:47;;;;;;;10.40;6.75;;;;;;;;;;5068592;28;20070;-79
2024/03/17 09:14:13;;;;;;;9.32;6.40;;;;;;;;;;5072584;28;20464;-79
2024/03/17 09:16:38;;;;;;;9.95;6.38;;;;;;;;;;5056595;28;20115;-79
2024/03/17 09:19:04;;;;;;;10.93;6.50;;;;;;;;;;5054467;28;20035;-79
2024/03/17 09:21:29;;;;;;;9.07;6.53;;;;;;;;;;5068705;28;20028;-79
2024/03/17 09:23:54;;;;;;;10.48;6.72;;;;;;;;;;5058899;28;20544;-79
2024/03/17 09:26:20;;;;;;;11.30;6.95;;;;;;;;;;5057987;28;20035;-87
2024/03/17 09:28:45;;;;;;;9.68;6.57;;;;;;;;;;5071776;28;20020;-87
2024/03/17 09:31:11;;;;;;;10.02;6.40;;;;;;;;;;5071107;28;20043;-87
2024/03/17 09:33:38;;;;;;;10.18;6.30;;;;;;;;;;5072503;28;20028;-88
2024/03/17 09:36:08;;;;;;;10.50;6.35;;;;;;;;;;5047149;28;20102;-87
2024/03/17 09:38:35;;;;;;;9.55;6.85;;;;;;;;;;5055175;28;20020;-88
2024/03/17 09:41:01;;;;;;;10.82;6.82;;;;;;;;;;5071269;28;20540;-88
2024/03/17 09:43:34;;;;;;;9.32;6.97;;;;;;;;;;5072005;28;20021;-89
2024/03/17 09:46:01;;;;;;;;;;;;;;;;;;5073745;28;20024;-88
2024/03/17 09:48:28;;;;;;;11.07;6.38;;;;;;;;;;5063539;28;19912;-87
2024/03/17 09:50:59;;;;;;;11.60;6.50;;;;;;;;;;5063930;28;20043;-88
2024/03/17 09:53:28;;;;;;;8.52;6.03;;;;;;;;;;5067583;28;20020;-88
2024/03/17 09:55:58;;;;;;;10.05;7.00;;;;;;;;;;5051157;28;20398;-87
2024/03/17 09:58:24;;;;;;;11.07;7.05;;;;;;;;;;5067839;28;20052;-89
2024/03/17 10:00:49;;;;;;;9.85;6.40;;;;;;;;;;5052631;28;20122;-88
2024/03/17 10:03:44;;;;;;;11.82;7.20;;;;;;;;;;5052025;28;20483;-88
2024/03/17 10:06:11;;;;;;;11.60;6.75;;;;;;;;;;5064391;28;20032;-88
2024/03/17 10:08:44;;;;;;;11.15;6.85;;;;;;;;;;5050594;28;20051;-87
2024/03/17 10:11:11;;;;;;;8.43;6.50;;;;;;;;;;5067485;28;20056;-87
2024/03/17 10:13:36;;;;;;;9.43;6.88;;;;;;;;;;5071785;28;20097;-87
2024/03/17 10:16:02;;;;;;;10.30;7.28;;;;;;;;;;5055998;28;20036;-87
2024/03/17 10:18:28;;;;;;;12.80;7.60;;;;;;;;;;5053434;28;20024;-86
2024/03/17 10:20:57;;;;;;;11.48;6.88;;;;;;;;;;5070397;28;20041;-87
2024/03/17 10:23:23;;;;;;;12.63;7.40;;;;;;;;;;5054970;28;20119;-88
2024/03/17 10:25:49;;;;;;;9.13;6.38;;;;;;;;;;5070852;28;20028;-87
2024/03/17 10:28:16;;;;;;;10.50;6.70;;;;;;;;;;5070143;28;20028;-87
2024/03/17 10:30:56;;;;;;;8.90;6.35;;;;;;;;;;5053838;28;20063;-89
2024/03/17 10:33:25;;;;;;;9.50;7.10;;;;;;;;;;5050675;28;20036;-88
2024/03/17 10:35:50;;;;;;;10.38;6.43;;;;;;;;;;5072427;28;20025;-87
2024/03/17 10:38:16;;;;;;;9.48;6.72;;;;;;;;;;5069071;28;20820;-87
2024/03/17 10:40:41;;;;;;;9.80;7.07;;;;;;;;;;5072043;28;20035;-88
2024/03/17 10:43:07;;;;;;;11.20;6.60;;;;;;;;;;5052411;28;20056;-89
2024/03/17 10:45:38;;;;;;;10.82;7.05;;;;;;;;;;5054057;28;20037;-89
2024/03/17 10:48:07;;;;;;;9.25;6.35;;;;;;;;;;5048814;28;20033;-88
2024/03/17 10:50:40;;;;;;;10.05;6.70;;;;;;;;;;5070836;28;20029;-89
2024/03/17 10:53:08;;;;;;;9.63;6.57;;;;;;;;;;5051843;28;20029;-89
2024/03/17 10:55:47;;;;;;;8.85;6.47;;;;;;;;;;5053904;28;20028;-89
2024/03/17 10:58:48;;;;;;;12.20;6.82;;;;;;;;;;5066008;28;20083;-89
2024/03/17 11:01:14;;;;;;;9.57;6.20;;;;;;;;;;5063942;28;20051;-90
2024/03/17 11:03:40;;;;;;;9.68;6.15;;;;;;;;;;5068841;28;20028;-90
2024/03/17 11:06:08;;;;;;;8.13;6.50;;;;;;;;;;5072244;28;20024;-89
2024/03/17 11:08:34;;;;;;;11.30;6.30;;;;;;;;;;5067115;28;20481;-89
2024/03/17 11:11:00;;;;;;;9.90;6.15;;;;;;;;;;5053948;28;20101;-90
2024/03/17 11:13:27;;;;;;;9.57;6.53;;;;;;;;;;5055279;28;20474;-90
2024/03/17 11:15:55;;;;;;;10.30;6.28;;;;;;;;;;5063849;28;20025;-90
2024/03/17 11:18:21;;;;;;;11.13;6.63;;;;;;;;;;5052528;28;20029;-89
2024/03/17 11:21:22;;;;;;;8.95;6.03;;;;;;;;;;5044491;28;20039;-90
2024/03/17 11:23:59;;;;;;;8.45;6.35;;;;;;;;;;5065106;28;20036;-91
2024/03/17 11:26:32;;;;;;;9.20;6.03;;;;;;;;;;5075593;28;20024;-92
2024/03/17 11:28:58;;;;;;;9.77;6.38;;;;;;;;;;5056678;28;20028;-89
2024/03/17 11:31:40;;;;;;;11.88;6.55;;;;;;;;;;5054447;28;20531;-89
2024/03/17 11:34:07;;;;;;;9.70;5.85;;;;;;;;;;5067774;28;20119;-90
2024/03/17 11:36:38;;;;;;;9.07;6.25;;;;;;;;;;5053710;28;20025;-88
2024/03/17 11:39:17;;;;;;;10.82;6.30;;;;;;;;;;5074810;28;20539;-90
2024/03/17 11:41:46;;;;;;;9.65;6.05;;;;;;;;;;5057199;28;20158;-88
2024/03/17 11:44:29;;;;;;;8.85;6.00;;;;;;;;;;5050897;28;20043;-89
2024/03/17 11:47:05;;;;;;;9.93;7.20;;;;;;;;;;5038988;28;20028;-80
2024/03/17 11:49:33;;;;;;;9.50;6.18;;;;;;;;;;5054540;28;20025;-79
2024/03/17 11:52:03;;;;;;;9.10;6.30;;;;;;;;;;5053062;28;20132;-79
2024/03/17 11:54:34;;;;;;;11.32;6.35;;;;;;;;;;5048252;28;20040;-79
2024/03/17 11:57:05;;;;;;;9.55;5.97;;;;;;;;;;5064117;28;20032;-79
2024/03/17 11:59:31;;;;;;;8.98;6.20;;;;;;;;;;5043657;28;20062;-79
2024/03/17 12:01:57;;;;;;;8.82;6.25;;;;;;;;;;5045908;28;20047;-79
2024/03/17 12:04:24;;;;;;;9.73;6.22;;;;;;;;;;5065746;28;20067;-79
2024/03/17 12:06:50;;;;;;;9.52;6.10;;;;;;;;;;5049674;28;20125;-79
2024/03/17 12:09:24;;;;;;;13.38;6.35;;;;;;;;;;5063049;28;20268;-78
2024/03/17 12:12:08;;;;;;;9.15;5.97;;;;;;;;;;5044518;28;20036;-79
2024/03/17 12:14:35;;;;;;;11.68;6.00;;;;;;;;;;5027068;28;20119;-79
2024/03/17 12:17:01;;;;;;;8.63;6.22;;;;;;;;;;5052861;28;20036;-79
2024/03/17 12:19:27;;;;;;;7.97;5.88;;;;;;;;;;5057222;28;20586;-79
2024/03/17 12:21:54;;;;;;;9.48;6.28;;;;;;;;;;5059690;28;20104;-81
2024/03/17 12:24:23;;;;;;;9.15;6.05;;;;;;;;;;5038530;28;20036;-80
2024/03/17 12:26:50;;;;;;;8.55;5.80;;;;;;;;;;5061771;28;20033;-79
2024/03/17 12:29:32;;;;;;;9.88;6.40;;;;;;;;;;5058377;28;20085;-79
2024/03/17 12:32:07;;;;;;;11.25;6.22;;;;;;;;;;5036761;28;20024;-81
2024/03/17 12:34:36;;;;;;;10.70;5.93;;;;;;;;;;5042251;28;22948;-80
2024/03/17 12:37:02;;;;;;;8.82;5.75;;;;;;;;;;5042061;28;20119;-79
2024/03/17 12:39:28;;;;;;;8.18;6.32;;;;;;;;;;5058277;28;20055;-79
2024/03/17 12:42:10;;;;;;;10.07;6.65;;;;;;;;;;5054440;28;20024;-79
2024/03/17 12:44:38;;;;;;;9.52;6.47;;;;;;;;;;5037955;28;20036;-79
2024/03/17 12:47:05;;;;;;;10.43;6.47;;;;;;;;;;5052256;28;20197;-80
2024/03/17 12:49:34;;;;;;;8.57;6.60;;;;;;;;;;5045095;28;20032;-79
2024/03/17 12:52:00;;;;;;;9.43;6.47;;;;;;;;;;5054420;28;20063;-79
2024/03/17 12:54:27;;;;;;;10.07;6.65;;;;;;;;;;5044913;28;20533;-79
2024/03/17 13:02:46;;;;;;;12.50;6.72;;;;;;;;;;5048696;28;20066;-79
2024/03/17 13:05:20;;;;;;;9.85;6.60;;;;;;;;;;5030253;28;20032;-80
2024/03/17 13:07:49;;;;;;;9.02;6.50;;;;;;;;;;5060480;28;20115;-80
2024/03/17 13:10:16;;;;;;;9.75;6.80;;;;;;;;;;5032734;28;20032;-79
2024/03/17 13:12:42;;;;;;;9.45;6.45;;;;;;;;;;5038115;28;20056;-80
2024/03/17 13:15:15;;;;;;;12.40;6.47;;;;;;;;;;5062133;28;20039;-80
2024/03/17 13:17:42;;;;;;;10.05;6.70;;;;;;;;;;5046545;28;20028;-80
2024/03/17 13:20:16;;;;;;;8.68;6.15;;;;;;;;;;5051011;28;20111;-80
2024/03/17 13:22:45;;;;;;;9.52;6.30;;;;;;;;;;5040517;28;20016;-80
2024/03/17 13:25:21;;;;;;;9.38;6.05;;;;;;;;;;5043474;28;20024;-80
2024/03/17 13:27:47;;;;;;;9.77;5.75;;;;;;;;;;5045880;28;20727;-80
2024/03/17 13:30:14;;;;;;;8.43;5.65;;;;;;;;;;5040637;28;20074;-80
2024/03/17 13:32:44;;;;;;;9.20;5.90;;;;;;;;;;5053936;28;20098;-80
2024/03/17 13:35:15;;;;;;;8.85;5.65;;;;;;;;;;5063602;28;20035;-80
2024/03/17 13:37:40;;;;;;;9.32;5.50;;;;;;;;;;5061506;28;20035;-79
2024/03/17 13:40:06;;;;;;;9.10;5.70;;;;;;;;;;5069090;28;20025;-80
2024/03/17 13:42:32;;;;;;;9.60;5.35;;;;;;;;;;5044195;28;20058;-79
2024/03/17 13:44:57;;;;;;;8.25;5.93;;;;;;;;;;5040871;28;20040;-80
2024/03/17 13:47:23;;;;;;;8.10;5.40;;;;;;;;;;5053767;28;20550;-79
2024/03/17 13:49:48;;;;;;;9.35;5.90;;;;;;;;;;5065750;28;20020;-79
2024/03/17 13:52:13;;;;;;;11.35;6.10;;;;;;;;;;5058243;28;20060;-79
2024/03/17 13:54:39;;;;;;;8.88;5.80;;;;;;;;;;5061912;28;20029;-79
2024/03/17 13:57:05;;;;;;;10.55;5.85;;;;;;;;;;5037904;28;20033;-80
2024/03/17 13:59:32;;;;;;;9.60;5.97;;;;;;;;;;5063761;28;20549;-79
2024/03/17 14:01:57;;;;;;;10.23;6.00;;;;;;;;;;5043408;28;20469;-79
2024/03/17 14:04:23;;;;;;;9.68;5.88;;;;;;;;;;5044174;28;20470;-80
2024/03/17 14:06:48;;;;;;;9.85;5.85;;;;;;;;;;5063168;28;20048;-79
2024/03/17 14:09:17;;;;;;;13.18;6.40;;;;;;;;;;5043740;28;20058;-79
2024/03/17 14:11:43;;;;;;;9.50;5.90;;;;;;;;;;5066395;28;20020;-79
2024/03/17 14:14:10;;;;;;;9.25;6.25;;;;;;;;;;5060484;28;20494;-79
2024/03/17 14:16:35;;;;;;;11.02;6.20;;;;;;;;;;5039199;28;20033;-79
2024/03/17 14:19:01;;;;;;;10.18;5.88;;;;;;;;;;5055998;28;20825;-79
2024/03/17 14:21:27;;;;;;;8.65;5.30;;;;;;;;;;5057402;28;20530;-79
2024/03/17 14:23:54;;;;;;;10.68;5.20;;;;;;;;;;5043709;28;20020;-79
2024/03/17 14:26:20;;;;;;;8.75;4.85;;;;;;;;;;5055493;28;20131;-79
2024/03/17 14:28:46;;;;;;;8.00;5.18;;;;;;;;;;5038920;28;20111;-80
2024/03/17 14:31:11;;;;;;;9.75;5.25;;;;;;;;;;5059898;28;20033;-80
2024/03/17 14:33:37;;;;;;;9.88;4.78;;;;;;;;;;5037128;28;20028;-79
2024/03/17 14:36:03;;;;;;;7.38;4.85;;;;;;;;;;5056270;28;20020;-78
2024/03/17 14:38:28;;;;;;;7.90;4.88;;;;;;;;;;5050377;28;20040;-77
2024/03/17 14:40:54;;;;;;;7.65;4.90;;;;;;;;;;5062255;28;20036;-78
2024/03/17 14:43:20;;;;;;;8.02;5.13;;;;;;;;;;5043811;28;20078;-79
2024/03/17 14:45:46;;;;;;;8.65;5.72;;;;;;;;;;5065281;28;20028;-78